Terminal Aerodrome Forecast
Issued by NWS

Home | Current Version | Previous Version | Text Only | Print | Product List | Glossary On
Versions: 1 2 3 4 5 6 7 8 9 10 11 12
437
FTUS42 KTAE 202328
TAFVLD
TAF
KVLD 202328Z 2100/2124 VRB03KT P6SM BKN250
     FM211900 15005KT P6SM -TSRA BKN050CB
     FM212300 VRB03KT P6SM FEW050 BKN250=

USA.gov is the U.S. government's official web portal to all federal, state and local government web resources and services.